Terminal Aerodrome Forecast
Issued by NWS

Home | Current Version | Previous Version | Text Only | Print | Product List | Glossary On
Versions: 1 2 3 4 5 6 7 8 9 10 11 12 13 14
000
FTUS46 KLOX 030522
TAFPRB
TAF
KPRB 030522Z 0306/0406 VRB03KT P6SM BKN150
     FM032000 21010KT P6SM BKN150
     FM032200 21014G22KT P6SM BKN250
     FM040200 20008KT P6SM BKN250=

USA.gov is the U.S. government's official web portal to all federal, state and local government web resources and services.